Time;durP1;ratioP1;P1;durP2;ratioP2;P2;SDS_P1;SDS_P2;PMS_P1;PMS_P2;Temp;Humidity;BMP_temperature;BMP_pressure;BME280_temperature;BME280_humidity;BME280_pressure;Samples;Min_cycle;Max_cycle;Signal;HPM_P1;HPM_P2
2023/05/11 00:00:08;;;;;;;8.20;4.93;;;15.60;99.90;;;;;;5032252;28;20233;-86
2023/05/11 00:02:35;;;;;;;9.77;5.03;;;15.50;99.90;;;;;;5029046;28;20267;-88
2023/05/11 00:05:00;;;;;;;8.98;4.85;;;15.50;99.90;;;;;;5039086;28;20044;-87
2023/05/11 00:07:26;;;;;;;10.63;5.25;;;15.50;99.90;;;;;;5009953;28;20407;-87
2023/05/11 00:09:52;;;;;;;9.32;5.00;;;15.50;99.90;;;;;;5040356;28;20033;-87
2023/05/11 00:12:18;;;;;;;9.33;4.90;;;15.40;99.90;;;;;;5025855;28;20520;-85
2023/05/11 00:14:44;;;;;;;10.25;5.05;;;15.50;99.90;;;;;;5036794;28;20355;-87
2023/05/11 00:17:10;;;;;;;9.43;4.63;;;15.40;99.90;;;;;;5029663;28;20601;-86
2023/05/11 00:19:36;;;;;;;8.82;4.75;;;15.40;99.90;;;;;;5037106;28;20033;-86
2023/05/11 00:22:02;;;;;;;9.98;4.72;;;15.40;99.90;;;;;;5041112;28;20487;-88
2023/05/11 00:24:28;;;;;;;9.15;4.55;;;15.40;99.90;;;;;;5034719;28;20154;-87
2023/05/11 00:26:54;;;;;;;8.63;4.57;;;15.40;99.90;;;;;;5030570;28;20531;-86
2023/05/11 00:29:20;;;;;;;9.43;4.57;;;15.30;99.90;;;;;;5031918;28;20031;-88
2023/05/11 00:31:47;;;;;;;9.15;4.85;;;15.30;99.90;;;;;;5035932;28;20029;-88
2023/05/11 00:34:16;;;;;;;8.30;4.28;;;15.20;99.90;;;;;;5026587;28;20057;-87
2023/05/11 00:36:43;;;;;;;9.40;4.40;;;15.20;99.90;;;;;;5028185;28;20108;-87
2023/05/11 00:39:10;;;;;;;8.70;4.33;;;15.20;99.90;;;;;;5033939;28;20074;-87
2023/05/11 00:41:36;;;;;;;8.93;4.55;;;15.20;99.90;;;;;;5007740;28;20021;-86
2023/05/11 00:44:02;;;;;;;8.30;4.55;;;15.10;99.90;;;;;;5023527;28;21388;-85
2023/05/11 00:46:28;;;;;;;9.73;4.78;;;15.10;99.90;;;;;;5020185;28;20037;-86
2023/05/11 00:48:55;;;;;;;8.03;4.83;;;15.10;99.90;;;;;;5000768;28;20513;-87
2023/05/11 00:51:21;;;;;;;8.98;4.80;;;15.10;99.90;;;;;;5006297;28;20266;-86
2023/05/11 00:53:48;;;;;;;10.75;4.85;;;15.00;99.90;;;;;;5042057;28;20402;-88
2023/05/11 00:56:14;;;;;;;10.52;4.88;;;15.00;99.90;;;;;;5018010;28;20029;-87
2023/05/11 00:58:40;;;;;;;7.50;4.53;;;15.00;99.90;;;;;;5025980;28;20072;-87
2023/05/11 01:01:06;;;;;;;9.23;4.78;;;15.00;99.90;;;;;;5038351;28;20032;-87
2023/05/11 01:03:34;;;;;;;7.88;4.80;;;15.00;99.90;;;;;;5019645;28;20611;-87
2023/05/11 01:06:19;;;;;;;9.00;4.63;;;15.00;99.90;;;;;;5010854;28;20509;-87
2023/05/11 01:08:54;;;;;;;8.70;4.50;;;15.00;99.90;;;;;;5040121;28;20033;-86
2023/05/11 01:11:32;;;;;;;8.95;4.03;;;14.90;99.90;;;;;;5032703;28;20376;-86
2023/05/11 01:14:28;;;;;;;7.63;4.63;;;15.00;99.90;;;;;;5039233;28;20009;-86
2023/05/11 01:16:59;;;;;;;7.78;4.40;;;15.00;99.90;;;;;;5012436;28;20052;-87
2023/05/11 01:19:36;;;;;;;9.70;5.00;;;14.90;99.90;;;;;;4968880;28;20315;-87
2023/05/11 01:22:14;;;;;;;9.07;5.07;;;15.00;99.90;;;;;;4978866;28;20030;-86
2023/05/11 01:25:09;;;;;;;8.07;4.57;;;14.90;99.90;;;;;;5003857;28;20054;-87
2023/05/11 01:28:06;;;;;;;8.43;4.28;;;15.00;99.90;;;;;;5012224;28;20030;-87
2023/05/11 01:30:42;;;;;;;8.55;4.72;;;15.00;99.90;;;;;;4931781;28;20047;-86
2023/05/11 01:33:11;;;;;;;7.78;4.47;;;15.00;99.90;;;;;;4932934;28;20098;-87
2023/05/11 01:35:42;;;;;;;8.30;4.63;;;14.90;99.90;;;;;;4916846;28;20506;-87
2023/05/11 01:38:11;;;;;;;8.60;4.88;;;14.90;99.90;;;;;;4935447;28;20042;-87
2023/05/11 01:40:40;;;;;;;7.68;4.60;;;14.90;99.90;;;;;;4911250;29;20122;-86
2023/05/11 01:43:17;;;;;;;10.13;4.65;;;15.00;99.90;;;;;;4923149;28;20115;-86
2023/05/11 01:45:46;;;;;;;8.18;4.57;;;14.90;99.90;;;;;;4911668;28;20500;-87
2023/05/11 01:48:19;;;;;;;8.37;4.30;;;14.90;99.90;;;;;;4913378;28;20043;-86
2023/05/11 01:50:46;;;;;;;8.10;4.60;;;14.90;99.90;;;;;;4910383;28;20435;-87
2023/05/11 01:53:14;;;;;;;9.10;4.85;;;14.90;99.90;;;;;;4941997;28;20134;-87
2023/05/11 01:55:41;;;;;;;8.65;4.88;;;14.90;99.90;;;;;;4948197;28;20117;-85
2023/05/11 01:58:09;;;;;;;9.10;5.15;;;14.90;99.90;;;;;;4965020;28;20278;-86
2023/05/11 02:00:37;;;;;;;9.20;5.10;;;14.90;99.90;;;;;;4966138;28;20775;-87
2023/05/11 02:03:05;;;;;;;8.18;5.10;;;14.90;99.90;;;;;;4964085;28;20507;-86
2023/05/11 02:05:33;;;;;;;9.25;4.95;;;14.90;99.90;;;;;;4950813;28;20528;-86
2023/05/11 02:08:00;;;;;;;8.07;4.40;;;14.90;99.90;;;;;;5012677;28;20699;-86
2023/05/11 02:10:26;;;;;;;9.43;5.03;;;14.90;99.90;;;;;;5048074;28;20644;-88
2023/05/11 02:12:54;;;;;;;9.03;4.90;;;14.90;99.90;;;;;;5040948;28;20028;-88
2023/05/11 02:15:24;;;;;;;9.95;4.78;;;14.90;99.90;;;;;;5024959;28;20347;-86
2023/05/11 02:17:51;;;;;;;9.35;5.03;;;14.90;99.90;;;;;;5040325;28;20095;-86
2023/05/11 02:20:19;;;;;;;7.78;4.18;;;14.90;99.90;;;;;;5035218;28;20096;-88
2023/05/11 02:22:46;;;;;;;8.52;4.45;;;14.90;99.90;;;;;;5014317;28;20028;-86
2023/05/11 02:25:12;;;;;;;9.03;4.30;;;14.90;99.90;;;;;;5026209;28;20029;-86
2023/05/11 02:27:39;;;;;;;8.02;4.13;;;14.90;99.90;;;;;;5036760;28;20127;-86
2023/05/11 02:30:07;;;;;;;8.50;4.50;;;14.90;99.90;;;;;;5033227;28;20060;-86
2023/05/11 02:32:37;;;;;;;8.82;4.20;;;14.90;99.90;;;;;;5033895;28;20116;-86
2023/05/11 02:35:12;;;;;;;8.55;4.07;;;14.90;99.90;;;;;;5038431;28;20033;-86
2023/05/11 02:37:42;;;;;;;6.77;3.90;;;14.80;99.90;;;;;;5016488;28;20035;-87
2023/05/11 02:40:17;;;;;;;7.00;3.70;;;14.80;99.90;;;;;;5036783;28;20029;-87
2023/05/11 02:42:45;;;;;;;7.43;3.75;;;14.80;99.90;;;;;;5032075;28;20044;-87
2023/05/11 02:45:14;;;;;;;6.68;3.63;;;14.80;99.90;;;;;;5035779;28;20029;-86
2023/05/11 02:47:50;;;;;;;5.40;3.60;;;14.70;99.90;;;;;;5044934;28;20025;-87
2023/05/11 02:50:18;;;;;;;6.50;3.40;;;14.70;99.90;;;;;;5039914;28;20427;-86
2023/05/11 02:52:46;;;;;;;7.82;3.63;;;14.70;99.90;;;;;;5035251;28;20037;-86
2023/05/11 02:55:14;;;;;;;6.30;3.60;;;14.70;99.90;;;;;;5011862;28;20028;-87
2023/05/11 02:57:41;;;;;;;7.68;3.47;;;14.70;99.90;;;;;;5033789;28;20103;-89
2023/05/11 03:00:07;;;;;;;8.57;3.70;;;14.60;99.90;;;;;;5032432;28;20132;-86
2023/05/11 03:02:33;;;;;;;5.83;3.13;;;14.60;99.90;;;;;;5029758;28;20098;-87
2023/05/11 03:04:59;;;;;;;8.43;3.75;;;14.60;99.90;;;;;;5039819;28;20216;-87
2023/05/11 03:07:25;;;;;;;5.10;3.10;;;14.60;99.90;;;;;;5037610;28;20109;-88
2023/05/11 03:09:51;;;;;;;6.30;3.13;;;14.60;99.90;;;;;;5015025;28;20126;-88
2023/05/11 03:12:17;;;;;;;6.75;3.45;;;14.60;99.90;;;;;;5029510;28;20257;-86
2023/05/11 03:14:43;;;;;;;7.25;3.22;;;14.50;99.90;;;;;;5021776;28;20021;-88
2023/05/11 03:17:12;;;;;;;6.68;3.30;;;14.50;99.90;;;;;;5044782;28;20029;-87
2023/05/11 03:19:40;;;;;;;8.88;3.25;;;14.50;99.90;;;;;;5041813;28;20040;-90
2023/05/11 03:22:08;;;;;;;7.07;3.30;;;14.50;99.90;;;;;;5056720;28;20025;-86
2023/05/11 03:24:34;;;;;;;6.55;3.20;;;14.40;99.90;;;;;;5012310;28;20029;-89
2023/05/11 03:27:02;;;;;;;6.20;2.85;;;14.40;99.90;;;;;;5038014;28;20112;-85
2023/05/11 03:29:30;;;;;;;6.90;3.28;;;14.40;99.90;;;;;;5010676;28;20211;-90
2023/05/11 03:31:56;;;;;;;6.05;2.90;;;14.30;99.90;;;;;;5052898;28;20028;-85
2023/05/11 03:34:22;;;;;;;4.87;2.60;;;14.30;99.90;;;;;;5030319;28;20024;-85
2023/05/11 03:36:49;;;;;;;7.85;3.20;;;14.30;99.90;;;;;;5039956;28;20021;-84
2023/05/11 03:39:16;;;;;;;5.45;2.83;;;14.30;99.90;;;;;;5011304;28;20048;-86
2023/05/11 03:41:44;;;;;;;6.20;2.60;;;14.20;99.90;;;;;;5037638;28;20020;-89
2023/05/11 03:44:13;;;;;;;5.55;2.65;;;14.20;99.90;;;;;;5029127;28;20112;-86
2023/05/11 03:46:39;;;;;;;5.55;2.50;;;14.20;99.90;;;;;;5043039;28;20031;-90
2023/05/11 03:49:06;;;;;;;8.00;3.10;;;14.20;99.90;;;;;;5011823;28;20677;-86
2023/05/11 03:51:34;;;;;;;7.35;2.65;;;14.20;99.90;;;;;;5025067;28;20410;-89
2023/05/11 03:54:00;;;;;;;5.03;2.47;;;14.20;99.90;;;;;;5029109;28;20565;-85
2023/05/11 03:56:26;;;;;;;6.55;2.42;;;14.20;99.90;;;;;;5022414;28;20746;-89
2023/05/11 03:58:53;;;;;;;6.38;2.30;;;14.10;99.90;;;;;;5055756;28;20478;-92
2023/05/11 04:01:19;;;;;;;6.70;2.60;;;14.10;99.90;;;;;;5017859;28;20257;-87
2023/05/11 04:03:51;;;;;;;8.88;3.00;;;14.10;99.90;;;;;;5038716;28;20029;-90
2023/05/11 04:06:18;;;;;;;6.03;2.20;;;14.10;99.90;;;;;;5031323;28;20025;-88
2023/05/11 04:08:44;;;;;;;8.93;2.88;;;14.10;99.90;;;;;;5037637;28;20025;-89
2023/05/11 04:11:10;;;;;;;6.55;2.58;;;14.10;99.90;;;;;;4995416;28;20081;-85
2023/05/11 04:13:36;;;;;;;6.50;2.50;;;14.10;99.90;;;;;;5052983;28;20028;-88
2023/05/11 04:16:02;;;;;;;7.33;2.60;;;14.10;99.90;;;;;;5027161;28;20068;-85
2023/05/11 04:18:28;;;;;;;8.00;2.72;;;14.00;99.90;;;;;;5052753;28;20048;-86
2023/05/11 04:20:54;;;;;;;6.82;2.90;;;14.10;99.90;;;;;;5013551;28;20036;-83
2023/05/11 04:23:20;;;;;;;7.47;2.72;;;14.10;99.90;;;;;;5017285;28;20414;-86
2023/05/11 04:25:46;;;;;;;6.80;3.10;;;14.10;99.90;;;;;;5026705;28;20044;-86
2023/05/11 04:28:12;;;;;;;6.10;2.88;;;14.00;99.90;;;;;;5047660;28;20060;-85
2023/05/11 04:30:38;;;;;;;6.88;3.03;;;14.00;99.90;;;;;;5026130;28;20603;-85
2023/05/11 04:33:04;;;;;;;7.60;2.80;;;14.00;99.90;;;;;;5052128;28;20759;-84
2023/05/11 04:35:30;;;;;;;7.15;3.03;;;14.00;99.90;;;;;;5054217;28;20568;-87
2023/05/11 04:37:55;;;;;;;6.50;2.70;;;14.00;99.90;;;;;;5031376;28;20470;-84
2023/05/11 04:40:22;;;;;;;7.80;3.17;;;14.00;99.90;;;;;;5007620;28;20036;-87
2023/05/11 04:42:47;;;;;;;7.72;3.35;;;14.00;99.90;;;;;;5038386;28;20028;-86
2023/05/11 04:45:13;;;;;;;6.37;3.30;;;14.00;99.90;;;;;;5023110;28;20052;-86
2023/05/11 04:47:39;;;;;;;7.57;3.47;;;14.00;99.90;;;;;;5037661;28;21346;-88
2023/05/11 04:50:05;;;;;;;8.30;3.05;;;14.00;99.90;;;;;;5038722;28;20108;-82
2023/05/11 04:52:31;;;;;;;7.87;3.60;;;14.10;99.90;;;;;;5028987;28;22538;-86
2023/05/11 04:54:57;;;;;;;8.70;3.10;;;14.10;99.90;;;;;;5029119;28;20032;-83
2023/05/11 04:57:23;;;;;;;7.75;3.28;;;14.10;99.90;;;;;;5018323;28;20036;-86
2023/05/11 04:59:48;;;;;;;7.73;3.53;;;14.10;99.90;;;;;;5043304;28;20044;-83
2023/05/11 05:02:14;;;;;;;7.00;3.28;;;14.10;99.90;;;;;;5007810;28;20044;-89
2023/05/11 05:04:40;;;;;;;9.60;3.37;;;14.10;99.90;;;;;;5033088;28;20095;-84
2023/05/11 05:07:06;;;;;;;7.53;3.55;;;14.10;99.90;;;;;;5039093;28;20033;-89
2023/05/11 05:09:32;;;;;;;8.07;3.43;;;14.20;99.90;;;;;;5025057;28;20032;-84
2023/05/11 05:11:57;;;;;;;7.10;3.50;;;14.20;99.90;;;;;;5011480;28;20675;-90
2023/05/11 05:14:23;;;;;;;8.68;3.55;;;14.20;99.90;;;;;;5036288;28;20504;-84
2023/05/11 05:16:50;;;;;;;10.63;3.93;;;14.30;99.90;;;;;;5008068;28;20769;-83
2023/05/11 05:19:15;;;;;;;8.45;3.80;;;14.30;99.90;;;;;;5035647;28;20539;-87
2023/05/11 05:21:41;;;;;;;8.13;3.85;;;14.30;99.90;;;;;;5050272;28;20018;-86
2023/05/11 05:24:10;;;;;;;8.50;3.70;;;14.30;99.90;;;;;;5020969;28;20029;-85
2023/05/11 05:26:36;;;;;;;7.97;3.63;;;14.30;99.90;;;;;;5007421;28;20482;-83
2023/05/11 05:29:01;;;;;;;7.55;3.70;;;14.30;99.90;;;;;;5033172;28;20100;-87
2023/05/11 05:31:28;;;;;;;9.27;3.93;;;14.30;99.90;;;;;;5029907;28;20021;-84
2023/05/11 05:33:54;;;;;;;8.65;3.95;;;14.30;99.90;;;;;;5037536;28;20295;-84
2023/05/11 05:36:20;;;;;;;8.35;3.60;;;14.40;99.90;;;;;;5037360;28;20576;-86
2023/05/11 05:38:46;;;;;;;6.93;3.30;;;14.40;99.90;;;;;;5036108;28;20057;-87
2023/05/11 05:41:12;;;;;;;10.32;4.22;;;14.40;99.90;;;;;;5054732;28;20033;-88
2023/05/11 05:43:38;;;;;;;7.67;3.87;;;14.50;99.90;;;;;;5025208;28;20060;-83
2023/05/11 05:46:05;;;;;;;8.70;3.53;;;14.50;99.90;;;;;;5054756;28;20083;-86
2023/05/11 05:48:31;;;;;;;9.25;4.07;;;14.50;99.90;;;;;;5043995;28;20041;-84
2023/05/11 05:50:56;;;;;;;10.52;3.92;;;14.60;99.90;;;;;;5035078;28;20040;-88
2023/05/11 05:53:22;;;;;;;8.53;4.13;;;14.60;99.90;;;;;;5037939;28;20525;-84
2023/05/11 05:55:48;;;;;;;9.45;4.00;;;14.70;99.90;;;;;;5019673;28;20112;-83
2023/05/11 05:58:14;;;;;;;8.43;3.90;;;14.70;99.90;;;;;;5007498;28;20325;-87
2023/05/11 06:00:40;;;;;;;9.65;3.92;;;14.80;99.90;;;;;;5057529;28;20556;-85
2023/05/11 06:03:05;;;;;;;8.80;4.00;;;14.80;99.90;;;;;;5005654;28;20302;-83
2023/05/11 06:05:31;;;;;;;10.60;4.63;;;14.90;99.90;;;;;;5020492;28;20033;-85
2023/05/11 06:07:57;;;;;;;10.07;4.43;;;15.00;99.90;;;;;;5044245;28;20382;-84
2023/05/11 06:10:23;;;;;;;9.10;4.03;;;15.00;99.90;;;;;;5017321;28;20796;-87
2023/05/11 06:12:48;;;;;;;10.38;4.45;;;15.00;99.90;;;;;;5020535;28;20032;-82
2023/05/11 06:15:15;;;;;;;9.13;3.83;;;15.10;99.90;;;;;;5010331;28;20544;-89
2023/05/11 06:17:41;;;;;;;9.73;4.32;;;15.20;99.90;;;;;;5045191;28;20025;-85
2023/05/11 06:20:07;;;;;;;10.30;4.60;;;15.30;99.90;;;;;;5033437;28;20040;-89
2023/05/11 06:22:34;;;;;;;10.13;4.53;;;15.30;99.90;;;;;;5029709;28;20071;-86
2023/05/11 06:25:00;;;;;;;9.15;4.38;;;15.40;99.90;;;;;;5012597;28;20472;-83
2023/05/11 06:27:25;;;;;;;9.50;3.97;;;15.50;99.90;;;;;;5049980;28;20116;-87
2023/05/11 06:29:51;;;;;;;10.37;4.50;;;15.50;99.90;;;;;;5001747;28;20376;-82
2023/05/11 06:32:17;;;;;;;10.23;4.45;;;15.60;99.90;;;;;;5028601;28;20671;-85
2023/05/11 06:34:43;;;;;;;10.03;4.20;;;15.70;99.90;;;;;;5025780;28;20030;-82
2023/05/11 06:37:09;;;;;;;10.27;4.20;;;15.80;99.90;;;;;;5019950;28;20671;-83
2023/05/11 06:39:36;;;;;;;8.77;4.33;;;15.90;99.90;;;;;;5030185;28;20219;-81
2023/05/11 06:42:03;;;;;;;7.18;3.92;;;16.00;99.90;;;;;;4994210;28;20214;-83
2023/05/11 06:44:29;;;;;;;9.35;4.60;;;16.20;99.90;;;;;;4998657;28;20037;-84
2023/05/11 06:46:55;;;;;;;8.55;4.38;;;16.30;99.90;;;;;;5043791;28;20043;-82
2023/05/11 06:49:20;;;;;;;7.37;3.97;;;16.30;99.90;;;;;;5028444;28;20762;-82
2023/05/11 06:51:46;;;;;;;7.20;3.80;;;16.40;99.90;;;;;;5036949;28;20758;-82
2023/05/11 06:54:12;;;;;;;6.90;3.90;;;16.50;99.90;;;;;;5027061;28;20762;-80
2023/05/11 06:56:38;;;;;;;9.23;4.22;;;16.50;99.90;;;;;;5017732;28;20482;-85
2023/05/11 06:59:04;;;;;;;7.88;3.83;;;16.60;99.90;;;;;;5020674;28;20670;-86
2023/05/11 07:01:31;;;;;;;8.10;4.00;;;16.60;99.90;;;;;;5005899;28;20037;-82
2023/05/11 07:03:56;;;;;;;7.03;3.80;;;16.70;99.90;;;;;;5039543;28;20782;-84
2023/05/11 07:06:22;;;;;;;8.63;4.15;;;16.70;99.90;;;;;;5022013;28;20059;-82
2023/05/11 07:08:48;;;;;;;6.30;3.53;;;16.70;99.90;;;;;;5034165;28;20082;-80
2023/05/11 07:11:14;;;;;;;8.50;3.90;;;16.70;99.90;;;;;;5048892;28;20117;-83
2023/05/11 07:13:41;;;;;;;6.95;3.83;;;16.80;99.90;;;;;;5015136;28;20044;-79
2023/05/11 07:16:07;;;;;;;7.03;3.65;;;16.80;99.90;;;;;;5000658;28;20038;-80
2023/05/11 07:18:33;;;;;;;7.63;3.50;;;16.90;99.90;;;;;;5032645;28;20091;-84
2023/05/11 07:20:58;;;;;;;7.20;3.55;;;16.90;99.90;;;;;;5020554;28;20499;-81
2023/05/11 07:23:25;;;;;;;5.97;3.60;;;17.00;99.90;;;;;;5021970;28;20044;-81
2023/05/11 07:25:52;;;;;;;7.03;3.73;;;17.10;99.90;;;;;;5029833;28;20181;-80
2023/05/11 07:28:18;;;;;;;8.13;3.42;;;17.10;99.90;;;;;;5022312;28;20083;-79
2023/05/11 07:30:43;;;;;;;7.70;3.47;;;17.10;99.90;;;;;;4997493;28;20416;-83
2023/05/11 07:33:09;;;;;;;7.10;3.80;;;17.20;99.90;;;;;;5037494;28;20025;-81
2023/05/11 07:35:35;;;;;;;7.60;3.55;;;17.30;99.90;;;;;;5038863;28;20055;-81
2023/05/11 07:38:02;;;;;;;7.63;3.45;;;17.30;99.90;;;;;;5038074;28;20029;-78
2023/05/11 07:40:28;;;;;;;7.90;3.70;;;17.40;99.90;;;;;;5037468;28;20040;-79
2023/05/11 07:42:53;;;;;;;6.20;3.20;;;17.40;99.90;;;;;;5033719;28;20799;-82
2023/05/11 07:45:19;;;;;;;6.72;3.38;;;17.40;99.90;;;;;;5036582;28;20471;-82
2023/05/11 07:47:45;;;;;;;6.25;3.15;;;17.50;99.90;;;;;;5005549;28;20298;-79
2023/05/11 07:50:11;;;;;;;6.20;3.20;;;17.50;99.90;;;;;;5029648;28;20187;-81
2023/05/11 07:52:37;;;;;;;5.45;3.60;;;17.60;99.90;;;;;;5027059;28;20497;-82
2023/05/11 07:55:03;;;;;;;8.23;3.95;;;17.60;99.90;;;;;;5031145;28;20125;-84
2023/05/11 07:57:29;;;;;;;6.07;3.40;;;17.70;99.90;;;;;;5036906;28;20352;-84
2023/05/11 07:59:55;;;;;;;7.70;3.73;;;17.60;99.90;;;;;;4997769;28;20124;-82
2023/05/11 08:02:21;;;;;;;8.57;3.92;;;17.60;99.90;;;;;;5004238;28;20320;-81
2023/05/11 08:04:47;;;;;;;5.97;3.20;;;17.60;99.90;;;;;;5036286;28;20482;-81
2023/05/11 08:07:13;;;;;;;7.13;3.30;;;17.60;99.90;;;;;;5017724;28;20053;-83
2023/05/11 08:09:39;;;;;;;6.43;3.45;;;17.60;99.90;;;;;;5034505;28;20104;-82
2023/05/11 08:12:04;;;;;;;6.20;3.30;;;17.60;99.90;;;;;;5015567;28;20016;-84
2023/05/11 08:14:31;;;;;;;6.43;3.00;;;17.60;99.90;;;;;;5017891;28;20060;-83
2023/05/11 08:16:57;;;;;;;6.43;3.28;;;17.60;99.90;;;;;;5002322;28;20028;-82
2023/05/11 08:19:23;;;;;;;10.25;3.60;;;17.60;99.90;;;;;;5036445;28;20032;-81
2023/05/11 08:21:49;;;;;;;5.33;3.20;;;17.80;99.90;;;;;;5022584;28;20025;-80
2023/05/11 08:24:15;;;;;;;7.60;3.30;;;17.80;99.90;;;;;;5025461;28;20053;-80
2023/05/11 08:26:41;;;;;;;5.18;3.17;;;18.00;99.90;;;;;;5052099;28;20036;-79
2023/05/11 08:29:06;;;;;;;6.47;3.17;;;18.10;99.90;;;;;;5016468;28;20327;-79
2023/05/11 08:31:32;;;;;;;7.13;3.17;;;18.20;99.90;;;;;;5031866;28;20040;-83
2023/05/11 08:33:58;;;;;;;6.33;3.37;;;18.30;99.90;;;;;;5001822;28;20301;-83
2023/05/11 08:36:24;;;;;;;7.20;3.00;;;18.40;99.90;;;;;;5031328;28;20389;-82
2023/05/11 08:38:49;;;;;;;5.73;3.03;;;18.60;99.90;;;;;;5019833;28;20090;-81
2023/05/11 08:41:15;;;;;;;5.57;3.00;;;18.80;99.90;;;;;;5026416;28;20028;-82
2023/05/11 08:43:44;;;;;;;5.03;2.97;;;19.00;99.90;;;;;;5031690;28;20055;-81
2023/05/11 08:46:13;;;;;;;3.17;2.43;;;19.30;99.90;;;;;;5017615;28;20193;-79
2023/05/11 08:48:39;;;;;;;5.57;2.55;;;19.50;99.90;;;;;;5005902;28;20127;-79
2023/05/11 08:51:05;;;;;;;5.30;2.70;;;19.80;99.90;;;;;;5013972;28;20025;-81
2023/05/11 08:53:31;;;;;;;4.25;2.55;;;20.00;99.90;;;;;;5026369;28;20036;-80
2023/05/11 08:55:59;;;;;;;4.65;2.60;;;20.20;99.90;;;;;;5021075;28;20566;-79
2023/05/11 08:58:26;;;;;;;4.33;2.40;;;20.40;99.90;;;;;;5034206;28;20047;-82
2023/05/11 09:00:53;;;;;;;4.45;2.40;;;20.50;99.90;;;;;;5016252;28;20041;-81
2023/05/11 09:03:20;;;;;;;4.35;2.25;;;20.80;99.90;;;;;;5035897;28;20131;-79
2023/05/11 09:05:47;;;;;;;4.00;2.30;;;21.00;99.90;;;;;;5019083;28;20499;-80
2023/05/11 09:08:14;;;;;;;3.63;2.00;;;21.20;99.90;;;;;;5011060;28;20548;-83
2023/05/11 09:10:41;;;;;;;3.70;2.20;;;21.30;99.90;;;;;;5047228;28;20026;-81
2023/05/11 09:13:08;;;;;;;3.95;2.42;;;21.50;99.90;;;;;;5021162;28;20548;-83
2023/05/11 09:15:34;;;;;;;4.93;2.40;;;21.70;99.90;;;;;;5018041;28;20032;-81
2023/05/11 09:18:00;;;;;;;3.38;2.10;;;22.10;99.90;;;;;;5016890;28;20037;-81
2023/05/11 09:20:31;;;;;;;2.40;2.00;;;22.50;99.90;;;;;;5039879;28;20049;-81
2023/05/11 09:22:57;;;;;;;2.88;2.15;;;23.00;99.90;;;;;;4987762;28;20108;-78
2023/05/11 09:25:25;;;;;;;4.18;2.38;;;23.40;99.90;;;;;;5032484;28;20033;-80
2023/05/11 09:27:51;;;;;;;3.03;1.88;;;23.80;99.90;;;;;;5020460;28;20031;-79
2023/05/11 09:30:19;;;;;;;4.13;2.17;;;24.00;99.90;;;;;;5027999;28;20032;-80
2023/05/11 09:32:57;;;;;;;2.90;2.00;;;24.10;99.90;;;;;;5003589;28;20040;-80
2023/05/11 09:35:33;;;;;;;5.50;2.10;;;24.20;99.90;;;;;;5035950;28;20047;-79
2023/05/11 09:38:03;;;;;;;4.47;2.25;;;24.20;99.90;;;;;;5000206;28;20021;-81
2023/05/11 09:40:37;;;;;;;3.33;2.10;;;24.30;99.90;;;;;;5030227;28;20162;-79
2023/05/11 09:43:16;;;;;;;3.75;2.20;;;24.20;99.90;;;;;;5026470;28;20020;-81
2023/05/11 09:45:43;;;;;;;2.77;2.13;;;24.20;99.90;;;;;;5037403;28;20119;-79
2023/05/11 09:48:15;;;;;;;3.72;2.30;;;24.10;99.90;;;;;;5016689;28;20933;-79
2023/05/11 09:50:41;;;;;;;3.88;2.03;;;24.20;99.90;;;;;;5033313;28;20025;-80
2023/05/11 09:53:08;;;;;;;3.80;2.25;;;24.10;99.90;;;;;;5002306;28;20160;-79
2023/05/11 09:55:35;;;;;;;3.10;2.13;;;24.00;99.90;;;;;;5013796;28;20033;-81
2023/05/11 09:58:01;;;;;;;4.53;2.30;;;23.90;99.90;;;;;;5007252;28;20021;-79
2023/05/11 10:00:27;;;;;;;3.80;2.22;;;23.90;99.90;;;;;;5033202;28;20037;-81
2023/05/11 10:03:03;;;;;;;5.13;2.38;;;23.70;99.90;;;;;;5030092;28;20037;-81
2023/05/11 10:05:30;;;;;;;3.47;2.13;;;23.50;97.60;;;;;;5017985;28;20044;-82
2023/05/11 10:07:59;;;;;;;4.63;2.60;;;23.20;99.90;;;;;;5003489;28;20155;-79
2023/05/11 10:10:29;;;;;;;4.03;2.35;;;23.20;99.90;;;;;;5041841;28;20017;-79
2023/05/11 10:13:00;;;;;;;4.03;2.47;;;23.20;99.90;;;;;;5021747;28;20225;-79
2023/05/11 10:15:31;;;;;;;4.18;2.42;;;23.40;99.90;;;;;;5037885;28;20028;-81
2023/05/11 10:17:59;;;;;;;4.25;2.35;;;23.70;99.90;;;;;;5028168;28;20229;-81
2023/05/11 10:20:25;;;;;;;5.80;2.20;;;24.20;99.90;;;;;;5019038;28;20040;-82
2023/05/11 10:22:52;;;;;;;3.83;2.20;;;24.70;99.90;;;;;;5035131;28;20366;-80
2023/05/11 10:25:22;;;;;;;5.07;2.00;;;25.00;99.90;;;;;;5001346;28;20037;-78
2023/05/11 10:27:48;;;;;;;4.85;1.83;;;25.10;99.90;;;;;;5027700;28;20875;-80
2023/05/11 10:30:15;;;;;;;2.88;1.77;;;25.10;99.90;;;;;;5034647;28;20533;-79
2023/05/11 10:32:42;;;;;;;3.17;2.03;;;25.10;99.90;;;;;;5034879;28;20630;-81
2023/05/11 10:35:08;;;;;;;2.95;1.90;;;24.90;99.90;;;;;;5016663;28;20325;-79
2023/05/11 10:37:34;;;;;;;3.78;2.10;;;24.80;99.90;;;;;;5038718;28;20113;-78
2023/05/11 10:40:00;;;;;;;3.75;1.77;;;24.60;99.90;;;;;;5002896;28;20242;-80
2023/05/11 10:43:02;;;;;;;3.65;2.10;;;24.40;99.90;;;;;;5031275;28;20039;-81
2023/05/11 10:46:04;;;;;;;3.50;2.00;;;24.30;98.40;;;;;;5052864;28;20087;-80
2023/05/11 10:48:58;;;;;;;3.60;2.00;;;24.30;99.90;;;;;;5053948;28;20013;-79
2023/05/11 10:51:57;;;;;;;3.22;2.22;;;24.60;99.90;;;;;;5036323;28;20159;-80
2023/05/11 10:54:57;;;;;;;4.60;2.30;;;25.00;99.90;;;;;;5055888;28;20036;-82
2023/05/11 10:57:31;;;;;;;3.22;2.10;;;25.40;99.90;;;;;;5039260;28;20036;-84
2023/05/11 11:00:16;;;;;;;2.57;1.90;;;25.80;99.90;;;;;;5007639;28;20320;-83
2023/05/11 11:02:44;;;;;;;3.35;2.08;;;26.10;99.90;;;;;;5032559;28;20739;-80
2023/05/11 11:05:14;;;;;;;3.22;1.70;;;26.30;99.90;;;;;;5030549;28;20102;-81
2023/05/11 11:07:57;;;;;;;3.17;2.00;;;26.60;99.90;;;;;;5026571;28;20041;-82
2023/05/11 11:10:34;;;;;;;3.30;1.80;;;26.90;99.90;;;;;;5041775;28;20150;-79
2023/05/11 11:13:05;;;;;;;2.63;1.70;;;27.10;99.90;;;;;;5025983;28;20087;-81
2023/05/11 11:15:53;;;;;;;2.70;1.80;;;27.40;99.90;;;;;;5035594;28;20025;-81
2023/05/11 11:18:26;;;;;;;2.78;1.60;;;27.80;99.90;;;;;;5033717;28;20537;-79
2023/05/11 11:20:54;;;;;;;1.92;1.60;;;28.10;99.90;;;;;;5035199;28;20386;-81
2023/05/11 11:23:39;;;;;;;2.85;1.63;;;28.30;99.90;;;;;;5037975;28;20764;-81
2023/05/11 11:26:05;;;;;;;2.40;1.67;;;28.40;98.80;;;;;;4988760;28;20041;-79
2023/05/11 11:28:59;;;;;;;2.53;1.70;;;28.50;99.90;;;;;;5037541;28;20112;-80
2023/05/11 11:31:27;;;;;;;2.95;1.60;;;28.50;97.60;;;;;;5031801;28;20486;-80
2023/05/11 11:33:57;;;;;;;2.60;1.70;;;28.50;99.90;;;;;;5031836;28;20063;-80
2023/05/11 11:36:57;;;;;;;2.97;1.85;;;28.60;99.90;;;;;;5038199;28;20053;-81
2023/05/11 11:39:26;;;;;;;2.37;1.50;;;28.60;97.50;;;;;;5011239;28;20395;-80
2023/05/11 11:42:01;;;;;;;2.58;1.70;;;28.60;99.90;;;;;;4966431;28;20053;-80
2023/05/11 11:44:27;;;;;;;3.05;1.45;;;28.70;99.60;;;;;;4994634;28;20795;-80
2023/05/11 11:47:13;;;;;;;3.38;1.83;;;28.60;99.90;;;;;;5001860;28;20038;-79
2023/05/11 11:49:41;;;;;;;3.03;1.80;;;28.60;96.80;;;;;;5011201;28;20033;-79
2023/05/11 11:52:25;;;;;;;3.35;1.70;;;28.40;99.50;;;;;;4997792;28;20817;-79
2023/05/11 11:54:51;;;;;;;2.70;1.60;;;28.20;95.60;;;;;;4994696;28;20080;-81
2023/05/11 11:57:34;;;;;;;3.67;1.70;;;28.00;99.90;;;;;;4965925;28;20480;-81
2023/05/11 12:00:10;;;;;;;3.40;1.70;;;27.80;96.10;;;;;;4998051;28;20626;-80
2023/05/11 12:02:44;;;;;;;2.60;1.80;;;27.60;98.50;;;;;;5012540;28;20049;-79
2023/05/11 12:05:17;;;;;;;2.80;1.77;;;27.30;97.20;;;;;;4994588;28;20051;-82
2023/05/11 12:07:48;;;;;;;3.20;1.60;;;27.10;99.90;;;;;;5009928;28;20045;-80
2023/05/11 12:10:16;;;;;;;3.58;1.70;;;27.10;99.90;;;;;;5008877;28;20034;-84
2023/05/11 12:12:56;;;;;;;3.83;1.83;;;27.30;99.90;;;;;;4974973;28;20045;-80
2023/05/11 12:15:31;;;;;;;2.53;1.83;;;27.50;99.90;;;;;;5035694;28;20068;-80
2023/05/11 12:17:57;;;;;;;2.45;1.70;;;27.80;99.90;;;;;;5015184;28;20029;-82
2023/05/11 12:20:24;;;;;;;3.03;1.75;;;28.10;99.90;;;;;;5030883;28;20045;-80
2023/05/11 12:22:50;;;;;;;3.00;1.92;;;28.30;99.90;;;;;;5028245;28;20056;-80
2023/05/11 12:25:17;;;;;;;4.73;2.10;;;28.30;99.90;;;;;;5032986;28;20124;-81
2023/05/11 12:27:46;;;;;;;3.75;2.10;;;28.30;99.90;;;;;;5011742;28;20374;-80
2023/05/11 12:30:22;;;;;;;3.50;2.05;;;28.10;97.80;;;;;;5005385;28;20366;-79
2023/05/11 12:32:49;;;;;;;3.08;1.80;;;27.90;96.40;;;;;;5017360;28;20024;-80
2023/05/11 12:35:25;;;;;;;4.13;2.05;;;27.70;98.60;;;;;;5033855;28;20036;-81
2023/05/11 12:37:51;;;;;;;2.57;1.80;;;27.50;97.10;;;;;;5032814;28;20033;-80
2023/05/11 12:40:17;;;;;;;4.93;1.90;;;27.50;99.90;;;;;;5032542;28;20029;-81
2023/05/11 12:42:50;;;;;;;3.33;1.90;;;27.60;99.90;;;;;;5025800;28;20289;-80
2023/05/11 12:45:18;;;;;;;2.85;1.90;;;27.70;99.90;;;;;;4998815;28;20039;-84
2023/05/11 12:47:44;;;;;;;3.35;2.30;;;27.90;99.90;;;;;;5043748;28;20036;-80
2023/05/11 12:50:11;;;;;;;4.67;2.20;;;28.20;99.90;;;;;;5033215;28;20242;-85
2023/05/11 12:52:36;;;;;;;3.00;1.80;;;28.40;99.90;;;;;;5034342;28;20061;-80